createdAt,value
2019-05-21T00:00:28.094Z,7.38
2019-05-21T00:02:57.909Z,7.37
2019-05-21T00:05:27.963Z,7.44
2019-05-21T00:07:57.564Z,7.44
2019-05-21T00:10:27.357Z,7.52
2019-05-21T00:12:57.015Z,7.46
2019-05-21T00:15:26.773Z,7.37
2019-05-21T00:17:58.645Z,7.33
2019-05-21T00:20:30.233Z,7.17
2019-05-21T00:23:00.914Z,7.14
2019-05-21T00:25:31.541Z,7.15
2019-05-21T00:28:34.025Z,7.18
2019-05-21T00:31:42.231Z,7.24
2019-05-21T00:34:50.092Z,7.25
2019-05-21T00:37:56.281Z,7.31
2019-05-21T00:41:04.025Z,7.37
2019-05-21T00:43:52.308Z,7.34
2019-05-21T00:46:22.034Z,7.34
2019-05-21T00:48:52.723Z,7.39
2019-05-21T00:51:22.416Z,7.42
2019-05-21T00:53:52.798Z,7.40
2019-05-21T00:56:23.801Z,7.38
2019-05-21T00:58:53.596Z,7.39
2019-05-21T01:01:23.468Z,7.45
2019-05-21T01:03:53.190Z,7.50
2019-05-21T01:06:25.517Z,7.50
2019-05-21T01:08:57.631Z,7.48
2019-05-21T01:11:30.568Z,7.48
2019-05-21T01:14:02.257Z,7.48
2019-05-21T01:16:32.756Z,7.45
2019-05-21T01:19:03.271Z,7.47
2019-05-21T01:21:33.245Z,7.45
2019-05-21T01:24:02.762Z,7.47
2019-05-21T01:26:33.070Z,7.52
2019-05-21T01:29:02.762Z,7.52
2019-05-21T01:31:32.494Z,7.42
2019-05-21T01:34:02.344Z,7.47
2019-05-21T01:36:32.304Z,7.51
2019-05-21T01:39:07.436Z,7.51
2019-05-21T01:41:37.515Z,7.53
2019-05-21T01:44:08.841Z,7.44
2019-05-21T01:46:43.700Z,7.47
2019-05-21T01:49:17.665Z,7.55
2019-05-21T01:51:49.180Z,7.56
2019-05-21T01:54:22.848Z,7.53
2019-05-21T01:56:52.543Z,7.37
2019-05-21T01:59:22.313Z,7.40
2019-05-21T02:01:52.059Z,7.43
2019-05-21T02:04:21.819Z,7.47
2019-05-21T02:06:51.658Z,7.41
2019-05-21T02:09:25.529Z,7.48
2019-05-21T02:11:55.278Z,7.46
2019-05-21T02:14:25.413Z,7.28
2019-05-21T02:16:57.795Z,7.32
2019-05-21T02:19:28.953Z,7.25
2019-05-21T02:22:01.107Z,7.30
2019-05-21T02:24:32.674Z,7.37
2019-05-21T02:27:03.455Z,7.37
2019-05-21T02:29:34.172Z,7.36
2019-05-21T02:32:03.951Z,7.39
2019-05-21T02:34:36.469Z,7.23
2019-05-21T02:37:06.669Z,7.12
2019-05-21T02:39:36.687Z,7.15
2019-05-21T02:42:06.430Z,7.21
2019-05-21T02:44:36.206Z,7.22
2019-05-21T02:47:06.034Z,7.26
2019-05-21T02:49:40.004Z,7.32
2019-05-21T02:52:09.813Z,7.35
2019-05-21T02:54:41.713Z,7.35
2019-05-21T02:57:11.046Z,7.45
2019-05-21T02:59:42.913Z,7.40
2019-05-21T03:02:29.005Z,7.28
2019-05-21T03:05:05.492Z,7.28
2019-05-21T03:07:36.462Z,7.15
2019-05-21T03:10:06.324Z,7.18
2019-05-21T03:12:37.702Z,7.21
2019-05-21T03:15:07.507Z,7.20
2019-05-21T03:17:38.734Z,7.15
2019-05-21T03:20:08.782Z,7.18
2019-05-21T03:22:38.831Z,7.21
2019-05-21T03:25:08.800Z,7.29
2019-05-21T03:27:40.210Z,7.34
2019-05-21T03:30:10.110Z,7.37
2019-05-21T03:32:41.401Z,6.84
2019-05-21T03:35:11.482Z,7.50
2019-05-21T03:37:41.943Z,7.59
2019-05-21T03:40:12.055Z,7.56
2019-05-21T03:42:45.143Z,7.60
2019-05-21T03:45:15.349Z,7.66
2019-05-21T03:47:45.190Z,7.57
2019-05-21T03:50:16.938Z,7.72
2019-05-21T03:52:47.788Z,7.76
2019-05-21T03:55:17.714Z,7.78
2019-05-21T03:57:47.467Z,7.70
2019-05-21T04:00:17.881Z,7.71
2019-05-21T04:02:47.663Z,7.79
2019-05-21T04:05:22.948Z,7.73
2019-05-21T04:07:53.506Z,7.84
2019-05-21T04:10:25.860Z,7.85
2019-05-21T04:13:08.307Z,7.95
2019-05-21T04:15:57.759Z,8.04
2019-05-21T04:18:44.448Z,8.15
2019-05-21T04:21:17.370Z,8.21
2019-05-21T04:23:48.527Z,8.18
2019-05-21T04:26:18.025Z,8.31
2019-05-21T04:28:51.192Z,8.29
2019-05-21T04:31:22.125Z,8.38
2019-05-21T04:33:51.889Z,8.42
2019-05-21T04:36:24.522Z,8.34
2019-05-21T04:38:55.191Z,8.55
2019-05-21T04:41:25.082Z,8.82
2019-05-21T04:43:54.776Z,9.24
2019-05-21T04:46:24.491Z,9.52
2019-05-21T04:48:54.289Z,9.74
2019-05-21T04:51:26.625Z,9.68
2019-05-21T04:53:58.029Z,9.80
2019-05-21T04:56:28.213Z,9.92
2019-05-21T04:58:59.136Z,10.04
2019-05-21T05:01:30.562Z,10.32
2019-05-21T05:04:00.349Z,10.50
2019-05-21T05:06:31.877Z,10.58
2019-05-21T05:09:03.484Z,10.76
2019-05-21T05:11:35.552Z,11.02
2019-05-21T05:14:06.210Z,11.27
2019-05-21T05:16:38.010Z,11.51
2019-05-21T05:19:09.113Z,11.76
2019-05-21T05:21:38.854Z,11.87
2019-05-21T05:24:08.465Z,12.15
2019-05-21T05:26:38.262Z,12.57
2019-05-21T05:29:07.993Z,12.91
2019-05-21T05:31:37.649Z,13.28
2019-05-21T05:34:07.611Z,13.61
2019-05-21T05:36:37.380Z,13.99
2019-05-21T05:39:08.584Z,14.27
2019-05-21T05:41:38.372Z,14.39
2019-05-21T05:44:08.232Z,14.75
2019-05-21T05:46:37.948Z,14.96
2019-05-21T05:49:09.268Z,15.16
2019-05-21T05:51:39.043Z,15.05
2019-05-21T05:54:09.042Z,14.84
2019-05-21T05:56:38.804Z,14.77
2019-05-21T05:59:08.666Z,14.90
2019-05-21T06:01:38.410Z,15.07
2019-05-21T06:04:08.159Z,14.87
2019-05-21T06:06:37.899Z,14.91
2019-05-21T06:09:07.720Z,14.92
2019-05-21T06:11:37.459Z,15.23
2019-05-21T06:14:07.209Z,15.03
2019-05-21T06:16:36.993Z,15.03
2019-05-21T06:19:07.100Z,14.58
2019-05-21T06:21:37.275Z,14.28
2019-05-21T06:24:07.015Z,14.52
2019-05-21T06:26:36.803Z,14.41
2019-05-21T06:29:06.591Z,14.07
2019-05-21T06:31:36.378Z,13.96
2019-05-21T06:34:07.023Z,13.75
2019-05-21T06:36:39.883Z,13.71
2019-05-21T06:39:10.383Z,13.57
2019-05-21T06:41:40.239Z,13.52
2019-05-21T06:44:10.026Z,13.55
2019-05-21T06:46:39.732Z,13.44
2019-05-21T06:49:09.441Z,13.56
2019-05-21T06:51:39.267Z,12.85
2019-05-21T06:54:09.063Z,13.64
2019-05-21T06:56:38.876Z,13.75
2019-05-21T06:59:08.463Z,13.79
2019-05-21T07:01:38.229Z,13.67
2019-05-21T07:04:08.003Z,13.77
2019-05-21T07:06:37.863Z,13.90
2019-05-21T07:09:08.723Z,14.03
2019-05-21T07:11:39.853Z,14.19
2019-05-21T07:14:09.604Z,14.12
2019-05-21T07:16:39.407Z,14.21
2019-05-21T07:19:09.175Z,14.28
2019-05-21T07:21:38.941Z,14.20
2019-05-21T07:24:08.704Z,14.21
2019-05-21T07:26:39.603Z,14.08
2019-05-21T07:29:09.351Z,13.99
2019-05-21T07:31:39.584Z,13.91
2019-05-21T07:34:09.385Z,14.08
2019-05-21T07:36:39.204Z,14.23
2019-05-21T07:39:10.587Z,14.34
2019-05-21T07:41:40.263Z,14.52
2019-05-21T07:44:10.282Z,14.48
2019-05-21T07:46:40.448Z,14.45
2019-05-21T07:49:10.171Z,14.55
2019-05-21T07:51:40.473Z,14.68
2019-05-21T07:54:10.221Z,14.73
2019-05-21T07:56:39.879Z,14.89
2019-05-21T07:59:09.663Z,14.99
2019-05-21T08:01:39.392Z,15.12
2019-05-21T08:04:09.143Z,15.44
2019-05-21T08:06:38.867Z,15.67
2019-05-21T08:09:14.398Z,15.64
2019-05-21T08:11:40.061Z,15.50
2019-05-21T08:14:09.816Z,15.45
2019-05-21T08:16:39.551Z,15.33
2019-05-21T08:19:09.444Z,15.18
2019-05-21T08:21:41.816Z,14.99
2019-05-21T08:24:11.540Z,14.84
2019-05-21T08:26:41.420Z,14.77
2019-05-21T08:29:11.283Z,14.72
2019-05-21T08:31:42.352Z,14.57
2019-05-21T08:34:12.057Z,14.38
2019-05-21T08:36:41.800Z,14.25
2019-05-21T08:39:27.401Z,14.22
2019-05-21T08:41:43.055Z,14.19
2019-05-21T08:44:12.849Z,14.27
2019-05-21T08:46:42.739Z,14.28
2019-05-21T08:49:12.490Z,14.21
2019-05-21T08:51:42.243Z,14.15
2019-05-21T08:54:12.545Z,14.28
2019-05-21T08:56:42.334Z,14.37
2019-05-21T08:59:12.111Z,14.45
2019-05-21T09:01:41.926Z,14.58
2019-05-21T09:04:11.936Z,14.70
2019-05-21T09:06:41.697Z,14.67
2019-05-21T09:09:11.821Z,14.64
2019-05-21T09:11:43.246Z,14.66
2019-05-21T09:14:13.016Z,14.74
2019-05-21T09:16:43.244Z,14.68
2019-05-21T09:19:13.045Z,14.79
2019-05-21T09:21:42.800Z,14.91
2019-05-21T09:24:12.606Z,15.13
2019-05-21T09:26:42.326Z,15.21
2019-05-21T09:29:12.006Z,15.28
2019-05-21T09:31:44.964Z,15.18
2019-05-21T09:34:15.089Z,15.08
2019-05-21T09:36:44.875Z,15.21
2019-05-21T09:39:14.659Z,15.13
2019-05-21T09:41:45.046Z,14.91
2019-05-21T09:44:14.744Z,14.95
2019-05-21T09:46:44.653Z,15.03
2019-05-21T09:49:14.440Z,15.05
2019-05-21T09:51:44.116Z,14.99
2019-05-21T09:54:13.927Z,14.81
2019-05-21T09:56:43.670Z,14.79
2019-05-21T09:59:15.032Z,14.76
2019-05-21T10:01:55.211Z,14.78
2019-05-21T10:04:24.994Z,14.91
2019-05-21T10:06:54.776Z,15.10
2019-05-21T10:09:24.537Z,15.37
2019-05-21T10:11:54.325Z,15.56
2019-05-21T10:14:24.066Z,16.07
2019-05-21T10:16:53.840Z,16.50
2019-05-21T10:19:23.644Z,16.54
2019-05-21T10:21:57.134Z,16.51
2019-05-21T10:24:27.028Z,16.58
2019-05-21T10:26:56.768Z,16.67
2019-05-21T10:29:26.649Z,16.58
2019-05-21T10:31:56.397Z,16.43
2019-05-21T10:34:26.513Z,16.32
2019-05-21T10:36:56.759Z,16.32
2019-05-21T10:39:26.616Z,16.30
2019-05-21T10:41:56.855Z,16.23
2019-05-21T10:44:26.626Z,16.11
2019-05-21T10:46:56.455Z,15.90
2019-05-21T10:49:26.346Z,15.80
2019-05-21T10:51:56.118Z,15.68
2019-05-21T10:54:25.902Z,15.51
2019-05-21T10:56:56.463Z,15.51
2019-05-21T10:59:26.207Z,15.60
2019-05-21T11:02:07.406Z,15.64
2019-05-21T11:04:48.691Z,15.63
2019-05-21T11:07:19.000Z,15.55
2019-05-21T11:09:49.392Z,15.47
2019-05-21T11:12:19.084Z,15.27
2019-05-21T11:14:51.179Z,15.14
2019-05-21T11:17:21.831Z,15.16
2019-05-21T11:19:51.604Z,15.22
2019-05-21T11:22:24.967Z,15.26
2019-05-21T11:24:55.663Z,15.17
2019-05-21T11:27:25.468Z,15.24
2019-05-21T11:29:55.204Z,15.26
2019-05-21T11:32:25.000Z,15.31
2019-05-21T11:34:56.424Z,15.31
2019-05-21T11:37:26.115Z,15.31
2019-05-21T11:39:55.787Z,15.22
2019-05-21T11:42:25.763Z,15.19
2019-05-21T11:44:55.494Z,15.13
2019-05-21T11:47:25.237Z,15.07
2019-05-21T11:49:55.056Z,14.98
2019-05-21T11:52:24.779Z,14.92
2019-05-21T11:54:56.055Z,14.86
2019-05-21T11:57:26.231Z,14.99
2019-05-21T11:59:56.259Z,15.07
2019-05-21T12:02:26.624Z,15.25
2019-05-21T12:04:56.401Z,15.51
2019-05-21T12:07:26.632Z,15.69
2019-05-21T12:09:56.472Z,15.86
2019-05-21T12:12:26.153Z,16.10
2019-05-21T12:14:56.206Z,16.10
2019-05-21T12:17:27.243Z,16.06
2019-05-21T12:19:57.041Z,16.27
2019-05-21T12:22:26.720Z,16.40
2019-05-21T12:24:58.809Z,16.34
2019-05-21T12:27:28.595Z,16.36
2019-05-21T12:29:58.949Z,16.31
2019-05-21T12:32:28.780Z,16.19
2019-05-21T12:34:58.591Z,16.13
2019-05-21T12:37:28.343Z,16.09
2019-05-21T12:39:58.261Z,16.03
2019-05-21T12:42:28.042Z,15.97
2019-05-21T12:44:57.813Z,15.89
2019-05-21T12:47:27.629Z,15.90
2019-05-21T12:49:57.393Z,15.98
2019-05-21T12:52:27.064Z,15.88
2019-05-21T12:54:57.913Z,15.90
2019-05-21T12:57:27.510Z,15.99
2019-05-21T12:59:57.313Z,15.94
2019-05-21T13:02:27.207Z,15.96
2019-05-21T13:04:56.960Z,15.98
2019-05-21T13:07:26.691Z,15.99
2019-05-21T13:09:59.114Z,16.05
2019-05-21T13:12:29.452Z,16.13
2019-05-21T13:14:59.203Z,16.12
2019-05-21T13:17:28.993Z,16.24
2019-05-21T13:19:58.755Z,16.37
2019-05-21T13:22:28.936Z,16.44
2019-05-21T13:24:58.921Z,16.47
2019-05-21T13:27:28.670Z,16.39
2019-05-21T13:29:58.424Z,16.24
2019-05-21T13:32:28.214Z,16.20
2019-05-21T13:34:57.950Z,16.08
2019-05-21T13:37:27.683Z,16.00
2019-05-21T13:39:57.504Z,15.90
2019-05-21T13:42:29.917Z,15.78
2019-05-21T13:44:59.726Z,15.71
2019-05-21T13:47:29.496Z,15.66
2019-05-21T13:49:59.314Z,15.66
2019-05-21T13:52:29.270Z,15.49
2019-05-21T13:55:01.577Z,15.49
2019-05-21T13:57:31.287Z,15.44
2019-05-21T14:00:01.585Z,15.38
2019-05-21T14:02:31.412Z,15.22
2019-05-21T14:05:01.110Z,15.22
2019-05-21T14:07:30.686Z,15.22
2019-05-21T14:10:14.035Z,15.24
2019-05-21T14:12:32.169Z,15.31
2019-05-21T14:15:01.838Z,15.37
2019-05-21T14:17:31.740Z,15.30
2019-05-21T14:20:01.476Z,15.35
2019-05-21T14:22:36.022Z,15.38
2019-05-21T14:25:02.853Z,15.45
2019-05-21T14:27:43.895Z,15.52
2019-05-21T14:30:06.427Z,15.56
2019-05-21T14:32:36.111Z,15.63
2019-05-21T14:35:06.237Z,15.52
2019-05-21T14:37:36.223Z,15.55
2019-05-21T14:40:10.457Z,15.58
2019-05-21T14:42:40.346Z,15.64
2019-05-21T14:45:10.357Z,15.64
2019-05-21T14:47:40.174Z,15.71
2019-05-21T14:50:10.013Z,15.71
2019-05-21T14:52:39.759Z,15.70
2019-05-21T14:55:09.582Z,15.73
2019-05-21T14:57:39.927Z,15.81
2019-05-21T15:00:29.835Z,15.81
2019-05-21T15:02:59.673Z,15.67
2019-05-21T15:05:29.470Z,15.99
2019-05-21T15:08:02.087Z,16.03
2019-05-21T15:10:47.266Z,16.07
2019-05-21T15:13:06.265Z,16.07
2019-05-21T15:15:36.302Z,16.07
2019-05-21T15:18:06.167Z,16.07
2019-05-21T15:20:43.321Z,16.06
2019-05-21T15:23:13.400Z,16.02
2019-05-21T15:25:43.128Z,16.05
2019-05-21T15:28:12.967Z,16.01
2019-05-21T15:30:42.709Z,15.92
2019-05-21T15:33:12.472Z,15.82
2019-05-21T15:35:42.251Z,15.78
2019-05-21T15:38:11.984Z,15.66
2019-05-21T15:40:42.547Z,15.48
2019-05-21T15:43:12.399Z,15.48
2019-05-21T15:45:42.096Z,15.45
2019-05-21T15:48:11.798Z,15.45
2019-05-21T15:50:41.579Z,15.34
2019-05-21T15:53:11.188Z,15.34
2019-05-21T15:55:40.990Z,15.34
2019-05-21T15:58:10.914Z,15.32
2019-05-21T16:00:40.679Z,15.32
2019-05-21T16:03:10.490Z,15.35
2019-05-21T16:05:40.243Z,15.36
2019-05-21T16:08:09.957Z,15.32
2019-05-21T16:10:40.126Z,15.28
2019-05-21T16:13:09.894Z,15.27
2019-05-21T16:15:43.028Z,15.32
2019-05-21T16:18:12.840Z,15.38
2019-05-21T16:20:43.451Z,15.41
2019-05-21T16:23:13.461Z,15.38
2019-05-21T16:25:43.293Z,15.32
2019-05-21T16:28:13.087Z,15.28
2019-05-21T16:30:45.784Z,15.22
2019-05-21T16:33:17.017Z,15.19
2019-05-21T16:35:48.848Z,15.12
2019-05-21T16:38:19.596Z,15.03
2019-05-21T16:40:49.760Z,14.94
2019-05-21T16:43:19.447Z,14.88
2019-05-21T16:45:49.356Z,14.81
2019-05-21T16:48:19.069Z,14.72
2019-05-21T16:50:49.096Z,14.65
2019-05-21T16:53:22.408Z,14.58
2019-05-21T16:55:54.736Z,14.42
2019-05-21T16:58:24.535Z,14.42
2019-05-21T17:00:55.708Z,14.40
2019-05-21T17:03:25.519Z,14.35
2019-05-21T17:05:55.787Z,14.36
2019-05-21T17:08:26.445Z,14.36
2019-05-21T17:10:56.307Z,14.37
2019-05-21T17:13:26.180Z,14.39
2019-05-21T17:15:55.998Z,14.40
2019-05-21T17:18:25.739Z,14.42
2019-05-21T17:20:55.569Z,14.42
2019-05-21T17:23:25.312Z,14.43
2019-05-21T17:25:55.093Z,14.41
2019-05-21T17:28:32.197Z,14.39
2019-05-21T17:31:03.109Z,14.34
2019-05-21T17:33:32.888Z,14.30
2019-05-21T17:36:02.713Z,14.20
2019-05-21T17:38:32.505Z,14.18
2019-05-21T17:41:02.289Z,14.12
2019-05-21T17:43:32.071Z,14.11
2019-05-21T17:46:01.882Z,14.16
2019-05-21T17:48:31.695Z,14.14
2019-05-21T17:51:01.569Z,14.11
2019-05-21T17:53:31.384Z,14.11
2019-05-21T17:56:03.113Z,14.09
2019-05-21T17:58:34.787Z,14.08
2019-05-21T18:01:06.212Z,14.07
2019-05-21T18:03:36.917Z,14.04
2019-05-21T18:06:07.506Z,13.95
2019-05-21T18:08:37.779Z,13.84
2019-05-21T18:11:08.127Z,13.77
2019-05-21T18:13:38.344Z,13.68
2019-05-21T18:16:10.134Z,13.60
2019-05-21T18:18:41.276Z,13.56
2019-05-21T18:21:11.287Z,13.53
2019-05-21T18:23:44.612Z,13.43
2019-05-21T18:26:14.513Z,13.38
2019-05-21T18:31:34.255Z,13.34
2019-05-21T18:34:04.347Z,13.33
2019-05-21T18:36:39.393Z,13.27
2019-05-21T18:39:09.088Z,13.25
2019-05-21T18:41:46.906Z,13.23
2019-05-21T18:44:16.798Z,13.18
2019-05-21T18:46:48.885Z,13.14
2019-05-21T18:49:22.287Z,13.11
2019-05-21T18:51:52.608Z,13.06
2019-05-21T18:54:22.447Z,13.10
2019-05-21T18:56:57.115Z,13.10
2019-05-21T18:59:29.484Z,13.05
2019-05-21T19:01:59.422Z,13.00
2019-05-21T19:04:29.666Z,12.97
2019-05-21T19:06:59.971Z,12.96
2019-05-21T19:09:32.766Z,12.95
2019-05-21T19:12:04.067Z,12.91
2019-05-21T19:14:34.460Z,12.86
2019-05-21T19:17:04.428Z,12.82
2019-05-21T19:19:34.516Z,12.80
2019-05-21T19:22:07.360Z,12.79
2019-05-21T19:24:40.071Z,12.77
2019-05-21T19:27:09.979Z,12.63
2019-05-21T19:29:39.954Z,12.58
2019-05-21T19:32:10.233Z,12.50
2019-05-21T19:34:40.118Z,12.48
2019-05-21T19:37:17.483Z,12.45
2019-05-21T19:39:47.784Z,12.44
2019-05-21T19:42:19.119Z,12.43
2019-05-21T19:44:48.988Z,12.41
2019-05-21T19:47:19.098Z,12.37
2019-05-21T19:49:48.969Z,12.33
2019-05-21T19:52:18.874Z,12.27
2019-05-21T19:54:55.903Z,12.28
2019-05-21T19:57:27.614Z,12.26
2019-05-21T19:59:57.779Z,12.18
2019-05-21T20:02:29.309Z,12.14
2019-05-21T20:05:00.453Z,12.11
2019-05-21T20:07:30.637Z,12.09
2019-05-21T20:10:00.451Z,12.06
2019-05-21T20:12:32.442Z,12.02
2019-05-21T20:15:02.516Z,11.99
2019-05-21T20:17:33.277Z,11.98
2019-05-21T20:20:04.216Z,11.92
2019-05-21T20:22:34.188Z,11.89
2019-05-21T20:25:05.053Z,11.84
2019-05-21T20:27:35.524Z,11.81
2019-05-21T20:30:12.800Z,11.80
2019-05-21T20:32:40.451Z,11.82
2019-05-21T20:35:12.187Z,11.77
2019-05-21T20:37:46.493Z,11.66
2019-05-21T20:40:16.866Z,11.52
2019-05-21T20:42:47.638Z,11.47
2019-05-21T20:45:19.093Z,11.39
2019-05-21T20:47:51.153Z,11.61
2019-05-21T20:50:22.675Z,11.51
2019-05-21T20:52:52.673Z,11.40
2019-05-21T20:55:23.061Z,11.42
2019-05-21T20:57:53.405Z,11.66
2019-05-21T21:00:25.309Z,11.55
2019-05-21T21:02:56.053Z,11.57
2019-05-21T21:05:26.346Z,11.49
2019-05-21T21:07:56.293Z,11.43
2019-05-21T21:10:26.574Z,11.41
2019-05-21T21:12:56.631Z,11.32
2019-05-21T21:15:26.218Z,11.36
2019-05-21T21:17:56.224Z,11.23
2019-05-21T21:20:25.983Z,11.12
2019-05-21T21:22:55.727Z,11.13
2019-05-21T21:25:26.043Z,11.04
2019-05-21T21:27:55.695Z,10.96
2019-05-21T21:30:26.080Z,10.92
2019-05-21T21:32:56.511Z,10.95
2019-05-21T21:35:26.943Z,10.93
2019-05-21T21:37:56.642Z,10.46
2019-05-21T21:40:26.406Z,10.82
2019-05-21T21:42:56.125Z,10.83
2019-05-21T21:45:25.969Z,10.75
2019-05-21T21:47:55.677Z,10.77
2019-05-21T21:50:26.268Z,10.77
2019-05-21T21:52:57.245Z,10.72
2019-05-21T21:55:27.086Z,10.69
2019-05-21T21:57:56.794Z,10.65
2019-05-21T22:00:42.886Z,10.64
2019-05-21T22:03:13.294Z,10.66
2019-05-21T22:05:43.697Z,10.59
2019-05-21T22:08:13.508Z,10.53
2019-05-21T22:10:45.793Z,10.51
2019-05-21T22:13:15.286Z,10.49
2019-05-21T22:15:45.185Z,10.53
2019-05-21T22:18:16.209Z,10.52
2019-05-21T22:20:46.303Z,10.50
2019-05-21T22:23:16.387Z,10.46
2019-05-21T22:25:47.020Z,10.51
2019-05-21T22:28:18.280Z,10.42
2019-05-21T22:30:48.558Z,10.38
2019-05-21T22:33:19.786Z,10.39
2019-05-21T22:35:50.415Z,10.36
2019-05-21T22:38:20.467Z,10.34
2019-05-21T22:40:50.428Z,10.35
2019-05-21T22:43:20.958Z,10.27
2019-05-21T22:45:52.760Z,10.26
2019-05-21T22:48:22.656Z,10.35
2019-05-21T22:50:53.277Z,10.29
2019-05-21T22:53:23.066Z,10.13
2019-05-21T22:55:54.649Z,10.11
2019-05-21T22:58:24.951Z,10.11
2019-05-21T23:00:56.065Z,10.17
2019-05-21T23:03:34.021Z,10.07
2019-05-21T23:06:08.424Z,10.05
2019-05-21T23:08:39.285Z,10.03
2019-05-21T23:11:09.284Z,10.04
2019-05-21T23:13:39.067Z,10.09
2019-05-21T23:16:09.096Z,10.16
2019-05-21T23:18:39.982Z,10.10
2019-05-21T23:21:11.321Z,10.04
2019-05-21T23:23:41.701Z,10.00
2019-05-21T23:26:11.586Z,9.99
2019-05-21T23:28:43.056Z,10.00
2019-05-21T23:31:13.215Z,10.04
2019-05-21T23:33:43.809Z,10.08
2019-05-21T23:36:13.790Z,10.11
2019-05-21T23:38:43.800Z,10.09
2019-05-21T23:41:13.465Z,9.98
2019-05-21T23:43:43.290Z,9.95
2019-05-21T23:46:15.389Z,9.99
2019-05-21T23:48:46.722Z,9.85
2019-05-21T23:51:17.249Z,9.77
2019-05-21T23:53:47.175Z,9.73
2019-05-21T23:56:18.023Z,9.74
2019-05-21T23:58:48.247Z,9.68
